Timeline UpdatesTrip UpdatesNews PostsPvt Posts♥♥Travel TipsAdmin PostsConv PostsFollowed PostsChat RequestsBlog PostsPNR Posts

Disclaimer
Search
 
 
Fri Nov 28, 2014 17:47:07 ISTHomeTrainsΣChainsAtlasPNRForumGalleryNewsFAQTripsMembersLoginFeedback
No Recent News for this Train
Other Trains in the News **new
Latest...
.
Tue Aug 14, 2012 (11:48AM)
⇐ Return Journey: Train# 51153

51154/Bhusaval Mumbai Passenger (UnReserved)

Time-Table HAS CHANGED.
Sep 03 2014 (1:21PM)
Change Departure Station:
Change Arrival Station:
Post a Train Travel TipPost a Train Travel Tip **new
Post a Comment/Question/Picture/VideoPost a Comment/Question/Picture/Video
Pantry/Catering
✕ NO Pantry Car
✕ NO Catering
RSA - Rake Sharing
No RSA.
Rake/Coach Composition
Entry# 145371 Author: ® राहुल कुमार जैन ; Engine, SLR, GS, GS, GS, GS, GS, GS, GS, GS, GS, GS, GS, GS, SLR= 14 coach
Loco
BSL-IGP : WAP-4 BSL, IGP-CSTM : WCAM-3 KYN.
News    PNR    Forum    Time-Table    Availability    Fare Chart    Map    Arr/Dep History    Trips    Gallery    ΣChains    X/O    Timeline    
Travel Time: 0h 52m    3 halts    Distance: 45 km    Avg Speed: 51 km/hr
Type: Passenger
Zone: CR/Central
Departs @ 07:05 (Avg 6m late)
Platform# 5
SMTWTFS
Bhusaval Junction/BSL 
Arrives @ 07:57 (Avg 28m late)
Platform# ???
SMTWTFS
Mhasavad/MWD 

3 halts. 4 intermediate Stations between Bhusaval Junction and Mhasavad

Hide intermediate Stations  Show Old Time-Table

#TrkCodeStation NameX/OArrivesAvgDepartsAvgHaltPFDay#KmSpeedElevZoneAddress
1/==/BSLBhusaval Junction (8)»  -07:05+6510.047208mCRBhusaval 425201, Maharashtra
2/==/BDIBhadli (2)  07:21+1207:22+141m--112.677211mCRBhadli, Maharashtra
2.1/==/TRWTarsod  07:27-07:27-  119.4 77206mCRAsoda - Tarsod Road, Maharashtra
3/==/JLJalgaon Junction (4)  07:31+1507:34+173m2124.154213mCRJalgaon 425001, Maharashtra
4/==/SSShirsoli (2)X  07:47+2607:48+281m--135.962211mCRShirsoli, Maharashtra
5/==/MWDMhasavad (3)•  07:57+2807:58+291m--145.271220mCRMhasavad, Maharashtra
6/==/MYJMaheji (2)  08:08+2908:09+391m--157.063247mCRJalgaon, Maharashtra
7/==/PHQPardhande (2)XO  08:16+3908:17+391m--164.434243mCRPardhande, Maharashtra
8/==/PCPachora Junction (4)O  08:30+3008:35+345m--171.826264mCRPachora 424201, Maharashtra
9/==/GAAGalan (2)  08:59+2609:00+361m--182.356282mCRGalan, Maharashtra
10/==/NGDNagardevla (2)O  09:09+3509:10+351m--190.746280mCRNagardevla, Maharashtra
11/==/KJKajgaon (3)  09:19+3609:20+371m--197.665297mCRKajgaon, Maharashtra
12/==/VGLVaghli (2)  09:29+3709:30+431m--1107.356331mCRVaghli, Maharashtra
13/==/CSNChalisgaon Junction (3)  09:40+4109:45+435m--1116.752352mCRChalisgaon 424101, Maharashtra
14/==/HPRHirapur (2)  09:54+4909:55+541m--1124.591373mCRHirapur, Maharashtra
14.1/==/RHNERohini (2)  09:59 10:01-10:00 10:01-  1133.6 91422mCRRohini, Maharashtra
15/==/NINaydongri (2)X  10:09 10:04+1:0110:10 10:05+1:011m--1138.265427mCRNaydongri, Maharashtra
16/==/PKEPimpar Khed (2)  10:19 10:14+1:0310:20 10:15+1:111m--1148.050462mCRPimpar Khed, Maharashtra
17/==/NGNNandgaon (3)X  10:34 10:28+1:1010:35 10:30+1:161 2m--1158.897476mCRNandgaon, Maharashtra
18/==/PJNPanjhan (2)  10:39 10:34+1:1910:40 10:35+1:201m--1165.336514mCRPanjhan, Maharashtra
19/==/HSLHisvahal (2)  10:49 10:44+1:1810:50 10:45+1:191m--1170.851540mCRHisvahal, Maharashtra
20/==/PNVPanevadi (2)  10:59 10:54+1:1911:00 10:55+1:211m--1178.5-561mCRPanevadi, Maharashtra
21/==/MMRManmad Junction (6)XO  11:12 10:57+1:0611:15 11:00+1:153m31184.231580mCRManmad 423104, Maharashtra
22/==/SUMSummit (2)X  11:29 11:24+1:3111:30 11:25+1:321m21196.656632mCRSummit, Maharashtra
23/==/LSLasalgaon (3)X  11:44 11:38+1:2611:45 11:40+1:261 2m--1208.766592mCRLasalgaon, Maharashtra
24/==/UGNUgaon (2)X  11:54 11:49+1:3311:55 11:50+1:331m21218.647568mCRUgaon, Maharashtra
25/==/NRNiphad (3)X  12:04 11:59+1:2812:05 12:00+1:281m21225.640550mCRNashik, Maharashtra
26/==/KBSNKasbe Sukene (3)  12:14 12:09+1:2912:15 12:10+1:291m--1231.645548mCRKasbe Sukene, Maharashtra
27/==/KWKhervadi (2)O  12:24 12:19+1:2712:25 12:20+1:271m21238.347553mCRKherwadi, Maharashtra
28/==/ODHAOdha (2)  12:34 12:29+1:2112:35 12:30+1:241m21245.435571mCRDist. Nashik, Maharashtra
29/==/NKNasik Road (3)  12:50+1:2813:10 13:05+1:2820 15m31257.025563mCRNashik 422101, Maharashtra
30/==/DVLDevlali (3)  13:24 13:19+1:2413:25 13:20+1:251m21262.732561mCRDist. Nashik 422401, Maharashtra
31/==/LTLahavit (1)X  13:39 13:34+1:1913:40 13:35+1:191m11270.383587mCRWadhiware, Maharashtra
32/==/AVAsvali (2)X  13:49 13:44+1:1813:50 13:45+1:181m--1282.7127578mCRAsvali, Maharashtra
33/==/PIPadli (1)X  13:59 13:49+1:2014:00 13:50+1:201m11291.226591mCRNational Highway 3, Maharashtra
34/==/GOGhoti (2)XO  14:14 14:09+1:0314:15 14:10+1:071m--1299.55581mCRGhoti, Maharashtra
35/==/IGPIgatpuri (4)X15:40+2415:45+295m--1307.620589mCRIgatpuri 422403, Maharashtra
35.1/==/TGR2Block & Catch Siding Cabin 2  16:09 16:07-16:10 16:07-  1314.7 20473mCRNational Highway 3, Maharashtra
35.2/==/TGR3Block & Catch Siding Cabin 3X  16:18-16:20 16:18-  1318.2 20365mCRNH-3, Maharashtra
36/==/KSRAKasara (4)  16:34 16:29+2216:35 16:30+271m--1322.089290mCRDist. Thane 421602, Maharashtra
36.1/==/OMBOombermaliX  16:48 16:35-16:49 16:35-  1328.8 89248mCROombermali, Maharashtra
37/==/KEKhardi (2)X  16:54 16:39+3316:55 16:40+331m--1335.352232mCRKhardi, Maharashtra
37.1/==/THSThansit  17:01 16:47-17:02 16:47-  1341.5 52184mCRNational Highway 3, Maharashtra
38/==/ATGAtgaon (2)  17:07 16:54+3217:08 16:55+321m--1347.442147mCRAtgaon, Maharashtra
39/==/ASOAsangaon (3)X  17:20 17:09+2917:21 17:10+291m--1357.24077mCRDist. Thane, Maharashtra
40/==/VSDVasind (2)  17:29 17:19+2617:30 17:20+261m--1363.25132mCRVasind, Maharashtra
41/==/KDVKhadavli (3)X  17:44 17:29+2117:45 17:30+381m--1370.811423mCRKhadavli, Maharashtra
42/==/TLATitwala (3)X  18:29 17:34+5218:30 17:35+521m--1378.47217mCRTitwala, Maharashtra
43/==/ABYAmbivli (2)X  18:37 17:39-18:38 17:40-1m21383.24522mCRAmbivli, Maharashtra
44/==/SHADShahad (2)  18:43 17:44-18:44 17:45-1m21386.22812mCRUlhasnagar, Maharashtra
45/==/KYNKalyan Junction (8)X  18:45 17:52+1:1318:50 17:55+1:125 3m51389.46710mCRKalyan 421301, Maharashtra
45.1/==/THKThakurli (2)O  17:58-17:58-  1393.0 6714mCRThakurli, Maharashtra
45.2/==/DIDombivli (5)X  17:59-17:59-  1394.4 6711mCRDombivli, Maharashtra
45.3/==/KOPRKopar (4)  18:01-18:01-  1395.7 670mCRKopar, Maharashtra
45.4/==/DIVADiva Junction (6)  18:04-18:04-  1400.0 673mCRJn Pt TNA/PNVL/KYN/BSR Diva, Maharashtra
45.5/==/MBQMumbra (2)  18:07-18:07-  1402.6 678mCRMumbra, Maharashtra
45.6/==/KLVAKalva (2)  18:11-18:11-  1407.1 675mCRKalva, Maharashtra
46/==/TNAThane (10)  19:13 18:13+1:1319:15 18:15+1:132m61409.65810mCRThane (West) 400602, Maharashtra
46.1/==/MLNDMulund (4)  18:18-18:18-  1412.2 5812mCRMumbai, Maharashtra
46.2/==/NHUNahur (2)X  18:20-18:20-  1414.4 585mCRMumbai, Maharashtra
46.3/==/BNDBhandup (4)  18:22-18:22-  1416.0 587mCRMumbai 400078, Maharashtra
46.4/==/KJMGKanjur Marg (2)  18:24-18:24-  1417.9 585mCRMumbai, Maharashtra
46.5/==/VKVikhroli (4)  18:25-18:25-  1419.8 5810mCRMumbai, Maharashtra
46.6/==/GCGhatkopar (4)  18:29-18:29-  1423.4 5811mCRMumbai 400086, Maharashtra
46.7/==/VVHVidyavihar (2)  18:31-18:31-  1424.8 588mCRMumbai, Maharashtra
46.8/==/LTTMumbai Lokmanya Tilak Terminus (5)  18:32-18:32-  1426.1 587mCRMumbai - 400089, Maharashtra
46.9/==/CLAKurla Junction (8)X  18:33-18:33-  1427.2 588mCRMumbai, Maharashtra
46.10/==/SINMumbai Sion (4)  18:36-18:36-  1429.8 587mCRMumbai, Maharashtra
46.11/==/MTNMumbai Matunga (4)  18:39-18:39-  1432.5 587mCRMumbai, Maharashtra
47/==/DRMumbai Dadar Central (8)  19:40 18:40+1:1019:45 18:45+1:105m61433.9217mCRMumbai 400014, Maharashtra
47.1/==/PRMumbai Parel (4)  18:48-18:48-  1434.9 216mCRMumbai, Maharashtra
47.2/==/CRDMumbai Currey Road (2)  18:53-18:53-  1436.7 215mCRMumbai, Maharashtra
47.3/==/CHGMumbai Chinchpokli (2)  18:55-18:55-  1437.5 216mCRMumbai, Maharashtra
47.4/==/BYByculla (4)  18:59-18:59-  1438.6 219mCRMumbai 400027, Maharashtra
47.5/==/SNRDMumbai Sandhurst Road (4)  19:04-19:04-  1440.5 219mCRMumbai, Maharashtra
47.6/==/MSDMumbai Masjid (4)  19:07-19:07-  1441.6 2110mCRMumbai, Maharashtra
48/==/CSTMMumbai CST (18)  20:15 19:10+1:34-111442.5-10mCRMumbai 400001, Maharashtra
Scroll to Top
Scroll to Bottom